createdAt,value
2023-05-09T00:01:36.337Z,50.78
2023-05-09T00:06:57.461Z,50.61
2023-05-09T00:12:18.368Z,50.91
2023-05-09T00:17:40.285Z,50.90
2023-05-09T00:23:01.283Z,51.11
2023-05-09T00:28:22.439Z,50.93
2023-05-09T00:33:43.657Z,50.98
2023-05-09T00:39:05.637Z,50.92
2023-05-09T00:44:26.681Z,51.06
2023-05-09T00:49:47.362Z,51.03
2023-05-09T00:55:08.834Z,51.42
2023-05-09T01:00:30.329Z,51.56
2023-05-09T01:06:15.262Z,51.07
2023-05-09T01:11:53.020Z,51.41
2023-05-09T01:17:30.830Z,51.23
2023-05-09T01:23:00.876Z,51.16
2023-05-09T01:28:36.740Z,51.35
2023-05-09T01:34:00.561Z,51.42
2023-05-09T01:39:24.989Z,51.63
2023-05-09T01:44:47.259Z,51.96
2023-05-09T01:50:11.040Z,51.73
2023-05-09T01:55:37.347Z,51.73
2023-05-09T02:00:59.494Z,51.78
2023-05-09T02:06:23.427Z,51.67
2023-05-09T02:11:44.997Z,51.62
2023-05-09T02:17:07.134Z,51.54
2023-05-09T02:22:28.406Z,51.92
2023-05-09T02:27:51.203Z,51.94
2023-05-09T02:33:13.942Z,52.21
2023-05-09T02:38:36.410Z,52.29
2023-05-09T02:43:57.564Z,51.92
2023-05-09T02:49:31.577Z,52.04
2023-05-09T02:54:53.779Z,51.86
2023-05-09T03:00:15.813Z,52.15
2023-05-09T03:05:37.100Z,52.21
2023-05-09T03:10:58.324Z,52.52
2023-05-09T03:16:20.323Z,52.11
2023-05-09T03:21:42.321Z,51.81
2023-05-09T03:27:03.218Z,51.92
2023-05-09T03:32:24.466Z,52.37
2023-05-09T03:37:45.432Z,52.18
2023-05-09T03:43:06.314Z,52.60
2023-05-09T03:48:27.585Z,51.99
2023-05-09T03:53:48.550Z,51.96
2023-05-09T03:59:10.536Z,52.94
2023-05-09T04:04:32.092Z,52.66
2023-05-09T04:09:58.617Z,52.72
2023-05-09T04:15:19.828Z,52.57
2023-05-09T04:20:40.890Z,52.58
2023-05-09T04:26:02.500Z,52.15
2023-05-09T04:31:24.376Z,51.46
2023-05-09T04:36:46.727Z,50.83
2023-05-09T04:42:08.067Z,50.05
2023-05-09T04:47:28.993Z,49.97
2023-05-09T04:52:50.040Z,49.94
2023-05-09T04:58:12.853Z,49.43
2023-05-09T05:03:33.880Z,49.32
2023-05-09T05:08:54.907Z,50.27
2023-05-09T05:14:16.545Z,48.76
2023-05-09T05:19:37.742Z,49.04
2023-05-09T05:25:01.076Z,48.62
2023-05-09T05:30:22.166Z,48.60
2023-05-09T05:35:43.407Z,48.36
2023-05-09T05:41:04.825Z,48.13
2023-05-09T05:46:27.305Z,48.02
2023-05-09T05:51:49.196Z,48.85
2023-05-09T05:57:10.603Z,48.57
2023-05-09T06:02:31.860Z,49.05
2023-05-09T06:07:53.172Z,48.45
2023-05-09T06:13:13.923Z,48.16
2023-05-09T06:18:40.249Z,48.86
2023-05-09T06:24:08.501Z,47.85
2023-05-09T06:29:31.233Z,47.52
2023-05-09T06:34:52.800Z,46.86
2023-05-09T06:40:17.229Z,47.42
2023-05-09T06:45:38.305Z,47.33
2023-05-09T06:50:59.143Z,46.61
2023-05-09T06:56:21.560Z,46.43
2023-05-09T07:01:42.832Z,47.57
2023-05-09T07:07:03.794Z,47.07
2023-05-09T07:12:24.936Z,46.46
2023-05-09T07:17:45.791Z,46.57
2023-05-09T07:23:07.002Z,46.31
2023-05-09T07:28:28.245Z,46.71
2023-05-09T07:33:49.404Z,46.24
2023-05-09T07:39:10.707Z,46.75
2023-05-09T07:44:31.654Z,46.17
2023-05-09T07:49:52.810Z,46.34
2023-05-09T07:55:14.082Z,46.04
2023-05-09T08:00:38.391Z,45.96
2023-05-09T08:05:59.382Z,46.04
2023-05-09T08:11:20.183Z,46.44
2023-05-09T08:16:43.549Z,46.54
2023-05-09T08:22:04.871Z,46.19
2023-05-09T08:27:26.326Z,46.14
2023-05-09T08:32:47.571Z,47.01
2023-05-09T08:38:10.370Z,46.15
2023-05-09T08:43:34.174Z,46.93
2023-05-09T08:48:56.923Z,46.72
2023-05-09T08:54:20.751Z,46.21
2023-05-09T08:59:44.004Z,46.68
2023-05-09T09:05:16.393Z,46.42
2023-05-09T09:10:49.715Z,47.05
2023-05-09T09:16:14.709Z,46.75
2023-05-09T09:21:36.699Z,47.29
2023-05-09T09:26:57.728Z,47.33
2023-05-09T09:32:19.756Z,47.31
2023-05-09T09:37:41.762Z,47.39
2023-05-09T09:43:07.053Z,47.14
2023-05-09T09:48:32.313Z,46.65
2023-05-09T09:53:53.465Z,47.32
2023-05-09T09:59:16.422Z,47.00
2023-05-09T10:04:39.358Z,47.71
2023-05-09T10:10:01.073Z,47.88
2023-05-09T10:15:23.073Z,47.35
2023-05-09T10:20:44.564Z,47.11
2023-05-09T10:26:15.907Z,47.19
2023-05-09T10:31:40.862Z,46.95
2023-05-09T10:37:02.246Z,47.03
2023-05-09T10:42:25.350Z,47.17
2023-05-09T10:47:48.452Z,47.37
2023-05-09T10:53:21.753Z,47.12
2023-05-09T10:58:42.708Z,47.26
2023-05-09T11:04:16.957Z,47.29
2023-05-09T11:09:40.012Z,47.42
2023-05-09T11:15:06.537Z,47.87
2023-05-09T11:20:29.076Z,47.66
2023-05-09T11:25:50.392Z,47.68
2023-05-09T11:31:16.988Z,47.44
2023-05-09T11:36:42.899Z,47.85
2023-05-09T11:42:04.893Z,47.55
2023-05-09T11:47:28.892Z,47.69
2023-05-09T11:52:50.939Z,47.73
2023-05-09T11:58:12.228Z,47.02
2023-05-09T12:03:35.802Z,47.19
2023-05-09T12:08:57.933Z,47.11
2023-05-09T12:14:34.889Z,47.67
2023-05-09T12:20:07.586Z,47.18
2023-05-09T12:25:28.605Z,47.12
2023-05-09T12:30:50.838Z,46.79
2023-05-09T12:36:13.812Z,46.96
2023-05-09T12:41:41.404Z,46.98
2023-05-09T12:47:05.238Z,46.76
2023-05-09T12:52:33.319Z,46.57
2023-05-09T12:58:02.388Z,46.52
2023-05-09T13:03:30.703Z,46.50
2023-05-09T13:09:02.484Z,46.72
2023-05-09T13:14:23.611Z,46.21
2023-05-09T13:19:44.446Z,46.12
2023-05-09T13:25:06.095Z,46.22
2023-05-09T13:30:27.349Z,45.93
2023-05-09T13:35:49.220Z,45.82
2023-05-09T13:41:10.237Z,46.03
2023-05-09T13:46:31.033Z,45.57
2023-05-09T13:51:51.932Z,45.35
2023-05-09T13:57:12.771Z,45.09
2023-05-09T14:02:33.880Z,45.31
2023-05-09T14:07:55.694Z,45.18
2023-05-09T14:13:16.717Z,45.01
2023-05-09T14:18:37.675Z,45.06
2023-05-09T14:23:58.446Z,45.08
2023-05-09T14:29:19.348Z,44.86
2023-05-09T14:34:40.047Z,44.48
2023-05-09T14:40:05.798Z,44.97
2023-05-09T14:45:27.084Z,44.63
2023-05-09T14:50:49.743Z,44.87
2023-05-09T14:56:13.957Z,44.59
2023-05-09T15:01:35.196Z,44.30
2023-05-09T15:06:56.969Z,44.21
2023-05-09T15:12:18.253Z,43.66
2023-05-09T15:17:39.310Z,43.26
2023-05-09T15:23:00.226Z,43.52
2023-05-09T15:28:21.452Z,43.57
2023-05-09T15:33:42.895Z,43.40
2023-05-09T15:39:05.158Z,43.29
2023-05-09T15:44:26.906Z,43.06
2023-05-09T15:49:47.837Z,43.60
2023-05-09T15:55:09.744Z,43.69
2023-05-09T16:00:30.789Z,43.71
2023-05-09T16:05:53.094Z,43.71
2023-05-09T16:11:14.363Z,43.42
2023-05-09T16:16:35.886Z,43.44
2023-05-09T16:21:57.447Z,43.31
2023-05-09T16:27:18.886Z,43.64
2023-05-09T16:32:39.986Z,43.77
2023-05-09T16:38:01.117Z,43.36
2023-05-09T16:43:22.015Z,43.60
2023-05-09T16:48:43.014Z,43.69
2023-05-09T16:54:03.899Z,43.74
2023-05-09T16:59:25.157Z,44.06
2023-05-09T17:04:46.340Z,43.87
2023-05-09T17:10:21.695Z,44.32
2023-05-09T17:15:42.953Z,43.96
2023-05-09T17:21:04.188Z,44.07
2023-05-09T17:26:26.069Z,43.93
2023-05-09T17:31:46.981Z,44.12
2023-05-09T17:37:09.224Z,44.34
2023-05-09T17:42:30.296Z,44.40
2023-05-09T17:47:51.136Z,44.56
2023-05-09T17:53:13.274Z,44.51
2023-05-09T17:58:34.388Z,44.83
2023-05-09T18:03:55.325Z,44.76
2023-05-09T18:09:16.376Z,44.98
2023-05-09T18:14:39.113Z,44.76
2023-05-09T18:20:00.338Z,45.14
2023-05-09T18:25:24.423Z,45.16
2023-05-09T18:30:45.812Z,45.20
2023-05-09T18:36:10.081Z,45.45
2023-05-09T18:41:31.951Z,45.53
2023-05-09T18:46:56.975Z,45.57
2023-05-09T18:52:21.211Z,45.72
2023-05-09T18:57:42.108Z,46.28
2023-05-09T19:03:03.075Z,45.92
2023-05-09T19:08:24.021Z,45.91
2023-05-09T19:13:48.701Z,45.96
2023-05-09T19:19:09.931Z,46.30
2023-05-09T19:24:32.786Z,46.55
2023-05-09T19:29:54.313Z,46.61
2023-05-09T19:35:16.236Z,46.76
2023-05-09T19:40:37.078Z,46.87
2023-05-09T19:45:58.566Z,46.98
2023-05-09T19:51:19.631Z,46.97
2023-05-09T19:56:40.453Z,47.04
2023-05-09T20:02:01.537Z,47.42
2023-05-09T20:13:01.230Z,47.53
2023-05-09T20:18:22.704Z,47.55
2023-05-09T20:23:43.912Z,47.76
2023-05-09T20:29:05.068Z,47.84
2023-05-09T20:34:27.317Z,48.15
2023-05-09T20:39:48.391Z,47.96
2023-05-09T20:45:09.626Z,47.96
2023-05-09T20:50:30.401Z,48.37
2023-05-09T20:55:51.439Z,48.55
2023-05-09T21:01:12.579Z,48.88
2023-05-09T21:06:33.611Z,48.74
2023-05-09T21:11:54.757Z,48.88
2023-05-09T21:17:15.732Z,49.10
2023-05-09T21:22:36.784Z,49.25
2023-05-09T21:27:57.500Z,49.37
2023-05-09T21:33:18.493Z,49.29
2023-05-09T21:38:39.550Z,49.44
2023-05-09T21:44:00.312Z,49.53
2023-05-09T21:49:21.802Z,50.06
2023-05-09T21:54:42.824Z,49.93
2023-05-09T22:00:05.666Z,50.12
2023-05-09T22:05:33.720Z,50.21
2023-05-09T22:10:54.491Z,50.42
2023-05-09T22:16:15.371Z,50.46
2023-05-09T22:21:36.139Z,50.45
2023-05-09T22:26:56.875Z,50.41
2023-05-09T22:32:17.836Z,50.68
2023-05-09T22:37:38.958Z,50.81
2023-05-09T22:42:59.876Z,50.84
2023-05-09T22:48:23.377Z,50.76
2023-05-09T22:53:44.071Z,51.12
2023-05-09T22:59:05.035Z,50.92
2023-05-09T23:04:25.975Z,51.21
2023-05-09T23:09:46.649Z,51.25
2023-05-09T23:15:08.035Z,51.09
2023-05-09T23:20:28.775Z,51.55
2023-05-09T23:25:49.520Z,51.56
2023-05-09T23:31:10.650Z,51.73
2023-05-09T23:36:32.914Z,52.02
2023-05-09T23:41:54.024Z,51.67
2023-05-09T23:47:16.919Z,52.18
2023-05-09T23:52:37.832Z,51.81
2023-05-09T23:57:59.511Z,51.92
